TimeEST,TemperatureF,Dew PointF,Humidity,Sea Level PressureIn,VisibilityMPH,Wind Direction,Wind SpeedMPH,Gust SpeedMPH,PrecipitationIn,Events,Conditions,WindDirDegrees,DateUTC
12:56 AM,12.9,-0.0,56,30.27,10.0,West,6.9,-,N/A,,Partly Cloudy,280,2013-01-23 05:56:00
1:56 AM,12.0,-0.0,59,30.27,10.0,West,8.1,-,N/A,,Clear,280,2013-01-23 06:56:00
2:56 AM,12.9,1.0,59,30.28,10.0,West,8.1,-,N/A,,Scattered Clouds,270,2013-01-23 07:56:00
3:56 AM,12.9,1.0,59,30.28,10.0,West,11.5,-,N/A,,Partly Cloudy,280,2013-01-23 08:56:00
4:56 AM,12.0,1.0,61,30.28,10.0,West,10.4,-,N/A,,Clear,280,2013-01-23 09:56:00
5:56 AM,12.0,-0.0,59,30.29,10.0,West,6.9,-,N/A,,Clear,260,2013-01-23 10:56:00
6:56 AM,12.0,1.0,61,30.29,10.0,West,6.9,-,N/A,,Clear,270,2013-01-23 11:56:00
7:56 AM,12.0,1.9,64,30.30,10.0,Variable,5.8,-,N/A,,Clear,0,2013-01-23 12:56:00
8:56 AM,14.0,1.9,59,30.32,10.0,West,11.5,-,N/A,,Clear,280,2013-01-23 13:56:00
9:56 AM,15.1,-0.0,51,30.32,10.0,West,11.5,19.6,N/A,,Scattered Clouds,270,2013-01-23 14:56:00
10:56 AM,17.1,1.9,52,30.32,10.0,West,12.7,17.3,N/A,,Mostly Cloudy,280,2013-01-23 15:56:00
11:56 AM,17.1,-0.0,47,30.28,10.0,West,6.9,16.1,N/A,,Mostly Cloudy,260,2013-01-23 16:56:00
12:56 PM,18.0,1.0,48,30.23,10.0,WSW,13.8,21.9,N/A,,Mostly Cloudy,240,2013-01-23 17:56:00
1:56 PM,19.0,1.0,46,30.22,10.0,West,5.8,20.7,N/A,,Mostly Cloudy,280,2013-01-23 18:56:00
2:56 PM,19.9,-0.9,40,30.22,10.0,WNW,18.4,21.9,N/A,,Scattered Clouds,300,2013-01-23 19:56:00
3:56 PM,19.9,1.9,46,30.22,10.0,WSW,8.1,-,N/A,,Scattered Clouds,250,2013-01-23 20:56:00
4:56 PM,19.0,1.0,46,30.22,10.0,West,13.8,-,N/A,,Scattered Clouds,280,2013-01-23 21:56:00
5:56 PM,18.0,1.0,48,30.22,10.0,WNW,8.1,-,N/A,,Scattered Clouds,290,2013-01-23 22:56:00
6:56 PM,18.0,1.0,48,30.21,10.0,WNW,8.1,-,N/A,,Scattered Clouds,300,2013-01-23 23:56:00
7:56 PM,15.1,-0.0,51,30.20,10.0,Calm,Calm,-,N/A,,Partly Cloudy,0,2013-01-24 00:56:00
8:56 PM,12.9,1.0,59,30.20,10.0,Calm,Calm,-,N/A,,Mostly Cloudy,0,2013-01-24 01:56:00
9:56 PM,15.1,-0.0,51,30.21,10.0,Calm,Calm,-,N/A,,Scattered Clouds,0,2013-01-24 02:56:00
10:56 PM,12.0,3.0,67,30.19,10.0,Calm,Calm,-,N/A,,Overcast,0,2013-01-24 03:56:00
11:56 PM,15.1,3.0,59,30.17,10.0,Calm,Calm,-,N/A,,Overcast,0,2013-01-24 04:56:00